createdAt,value
2024-02-29T00:00:36.149Z,98158.59
2024-02-29T00:03:30.098Z,98152.94
2024-02-29T00:06:03.762Z,98151.02
2024-02-29T00:08:37.490Z,98147.38
2024-02-29T00:11:11.408Z,98141.55
2024-02-29T00:13:45.022Z,98140.48
2024-02-29T00:16:19.194Z,98137.55
2024-02-29T00:18:53.062Z,98139.34
2024-02-29T00:21:26.648Z,98136.23
2024-02-29T00:24:00.233Z,98135.70
2024-02-29T00:26:34.716Z,98133.94
2024-02-29T00:29:09.203Z,98133.73
2024-02-29T00:31:46.821Z,98132.95
2024-02-29T00:34:20.725Z,98127.02
2024-02-29T00:36:54.305Z,98126.45
2024-02-29T00:39:28.186Z,98128.44
2024-02-29T00:42:01.898Z,98122.64
2024-02-29T00:44:35.937Z,98121.28
2024-02-29T00:47:10.370Z,98121.52
2024-02-29T00:49:44.108Z,98122.77
2024-02-29T00:52:18.237Z,98123.81
2024-02-29T00:54:52.170Z,98123.46
2024-02-29T00:57:26.245Z,98120.52
2024-02-29T00:59:59.903Z,98122.31
2024-02-29T01:02:33.753Z,98120.90
2024-02-29T01:05:08.745Z,98117.41
2024-02-29T01:07:42.715Z,98118.45
2024-02-29T01:10:17.569Z,98115.18
2024-02-29T01:12:51.399Z,98111.53
2024-02-29T01:15:25.483Z,98113.58
2024-02-29T01:17:59.372Z,98115.01
2024-02-29T01:20:33.243Z,98114.46
2024-02-29T01:23:07.199Z,98115.77
2024-02-29T01:25:41.481Z,98109.27
2024-02-29T01:28:15.299Z,98107.16
2024-02-29T01:30:48.852Z,98104.73
2024-02-29T01:33:22.568Z,98103.15
2024-02-29T01:35:56.571Z,98099.96
2024-02-29T01:38:30.226Z,98101.77
2024-02-29T01:41:04.110Z,98104.14
2024-02-29T01:43:37.998Z,98104.16
2024-02-29T01:46:17.176Z,98104.27
2024-02-29T01:48:51.389Z,98103.20
2024-02-29T01:51:25.165Z,98103.98
2024-02-29T01:53:58.804Z,98101.51
2024-02-29T01:56:32.522Z,98096.83
2024-02-29T01:59:06.878Z,98097.83
2024-02-29T02:01:40.748Z,98093.27
2024-02-29T02:04:14.597Z,98094.08
2024-02-29T02:06:48.584Z,98093.65
2024-02-29T02:09:22.697Z,98090.14
2024-02-29T02:11:57.228Z,98091.61
2024-02-29T02:14:31.334Z,98091.05
2024-02-29T02:17:05.009Z,98086.98
2024-02-29T02:19:40.084Z,98084.91
2024-02-29T02:22:14.178Z,98082.84
2024-02-29T02:24:47.963Z,98085.63
2024-02-29T02:27:22.442Z,98086.99
2024-02-29T02:29:56.051Z,98090.69
2024-02-29T02:32:30.356Z,98087.61
2024-02-29T02:35:05.689Z,98089.91
2024-02-29T02:37:39.919Z,98088.48
2024-02-29T02:40:15.115Z,98091.65
2024-02-29T02:42:49.252Z,98087.98
2024-02-29T02:45:22.954Z,98093.31
2024-02-29T02:47:56.940Z,98088.95
2024-02-29T02:50:31.172Z,98088.34
2024-02-29T02:53:09.002Z,98088.04
2024-02-29T02:55:43.197Z,98090.60
2024-02-29T02:58:17.520Z,98087.64
2024-02-29T03:00:51.244Z,98091.66
2024-02-29T03:03:25.101Z,98089.23
2024-02-29T03:05:59.115Z,98088.39
2024-02-29T03:08:32.997Z,98091.98
2024-02-29T03:11:06.657Z,98090.01
2024-02-29T03:13:41.377Z,98086.82
2024-02-29T03:16:15.508Z,98091.95
2024-02-29T03:18:49.878Z,98090.11
2024-02-29T03:21:23.908Z,98087.61
2024-02-29T03:23:58.052Z,98090.14
2024-02-29T03:26:31.632Z,98088.02
2024-02-29T03:29:05.926Z,98089.38
2024-02-29T03:31:39.621Z,98095.66
2024-02-29T03:34:13.475Z,98093.44
2024-02-29T03:36:47.670Z,98093.42
2024-02-29T03:39:21.676Z,98095.20
2024-02-29T03:41:55.634Z,98094.09
2024-02-29T03:44:29.435Z,98096.52
2024-02-29T03:47:03.475Z,98097.01
2024-02-29T03:49:37.226Z,98099.65
2024-02-29T03:52:12.138Z,98100.25
2024-02-29T03:54:46.692Z,98107.61
2024-02-29T03:57:20.190Z,98107.83
2024-02-29T03:59:54.158Z,98106.39
2024-02-29T04:02:29.680Z,98109.60
2024-02-29T04:05:03.280Z,98113.31
2024-02-29T04:07:38.217Z,98113.60
2024-02-29T04:10:13.809Z,98112.35
2024-02-29T04:12:47.327Z,98114.14
2024-02-29T04:15:21.847Z,98112.47
2024-02-29T04:17:55.424Z,98114.83
2024-02-29T04:20:29.434Z,98117.20
2024-02-29T04:23:03.436Z,98121.48
2024-02-29T04:25:37.342Z,98124.14
2024-02-29T04:28:11.309Z,98128.92
2024-02-29T04:30:46.144Z,98130.15
2024-02-29T04:33:20.555Z,98130.01
2024-02-29T04:35:54.283Z,98125.61
2024-02-29T04:38:28.160Z,98130.11
2024-02-29T04:41:02.678Z,98132.55
2024-02-29T04:43:36.713Z,98136.80
2024-02-29T04:46:11.254Z,98136.83
2024-02-29T04:48:45.258Z,98131.03
2024-02-29T04:51:19.170Z,98137.14
2024-02-29T04:53:53.888Z,98131.73
2024-02-29T04:56:28.221Z,98136.58
2024-02-29T04:59:02.123Z,98134.55
2024-02-29T05:01:35.953Z,98133.73
2024-02-29T05:04:10.493Z,98134.20
2024-02-29T05:06:44.350Z,98133.09
2024-02-29T05:09:18.731Z,98136.73
2024-02-29T05:11:52.588Z,98135.08
2024-02-29T05:14:27.032Z,98134.23
2024-02-29T05:17:01.423Z,98132.17
2024-02-29T05:19:36.237Z,98134.51
2024-02-29T05:22:10.668Z,98133.21
2024-02-29T05:24:44.434Z,98129.68
2024-02-29T05:27:18.185Z,98128.15
2024-02-29T05:29:51.946Z,98124.21
2024-02-29T05:32:26.266Z,98121.72
2024-02-29T05:35:00.783Z,98122.38
2024-02-29T05:37:34.592Z,98117.41
2024-02-29T05:40:12.197Z,98115.72
2024-02-29T05:42:45.794Z,98110.99
2024-02-29T05:45:19.831Z,98113.55
2024-02-29T05:47:54.548Z,98114.94
2024-02-29T05:50:31.229Z,98110.13
2024-02-29T05:53:07.535Z,98107.15
2024-02-29T05:55:41.520Z,98107.80
2024-02-29T05:58:15.654Z,98109.32
2024-02-29T06:00:49.581Z,98107.14
2024-02-29T06:03:23.762Z,98107.41
2024-02-29T06:05:57.386Z,98101.84
2024-02-29T06:08:31.572Z,98099.14
2024-02-29T06:11:05.854Z,98096.08
2024-02-29T06:13:41.121Z,98096.13
2024-02-29T06:16:15.799Z,98087.59
2024-02-29T06:18:50.011Z,98082.20
2024-02-29T06:21:23.768Z,98080.73
2024-02-29T06:23:57.380Z,98075.28
2024-02-29T06:26:30.992Z,98071.98
2024-02-29T06:29:04.805Z,98072.13
2024-02-29T06:31:38.878Z,98072.08
2024-02-29T06:34:12.676Z,98066.95
2024-02-29T06:36:46.290Z,98063.70
2024-02-29T06:39:20.223Z,98062.77
2024-02-29T06:41:54.517Z,98067.40
2024-02-29T06:44:28.094Z,98061.64
2024-02-29T06:47:01.779Z,98059.97
2024-02-29T06:49:35.747Z,98058.96
2024-02-29T06:52:12.144Z,98052.80
2024-02-29T06:54:46.989Z,98049.63
2024-02-29T06:57:21.321Z,98046.49
2024-02-29T06:59:55.737Z,98047.05
2024-02-29T07:02:30.251Z,98044.55
2024-02-29T07:05:04.360Z,98043.95
2024-02-29T07:07:38.263Z,98037.06
2024-02-29T07:10:14.264Z,98037.69
2024-02-29T07:12:48.433Z,98037.77
2024-02-29T07:15:22.732Z,98030.89
2024-02-29T07:17:56.587Z,98025.63
2024-02-29T07:20:30.865Z,98017.21
2024-02-29T07:23:05.407Z,98015.73
2024-02-29T07:25:39.193Z,98015.66
2024-02-29T07:28:13.628Z,98013.89
2024-02-29T07:30:47.640Z,98014.59
2024-02-29T07:33:21.430Z,98010.83
2024-02-29T07:35:56.181Z,98006.24
2024-02-29T07:38:30.209Z,98000.63
2024-02-29T07:41:04.690Z,98000.56
2024-02-29T07:43:38.493Z,97997.65
2024-02-29T07:46:12.202Z,97997.36
2024-02-29T07:48:46.534Z,97994.91
2024-02-29T07:51:23.232Z,97994.63
2024-02-29T07:53:57.162Z,97993.73
2024-02-29T07:56:30.869Z,97988.80
2024-02-29T07:59:04.685Z,97987.12
2024-02-29T08:01:38.458Z,97984.22
2024-02-29T08:04:13.247Z,97979.66
2024-02-29T08:06:47.539Z,97980.75
2024-02-29T08:09:21.146Z,97980.34
2024-02-29T08:11:56.049Z,97982.14
2024-02-29T08:14:28.827Z,97981.44
2024-02-29T08:17:02.861Z,97984.31
2024-02-29T08:19:36.367Z,97987.16
2024-02-29T08:22:10.401Z,97983.40
2024-02-29T08:24:44.464Z,97985.66
2024-02-29T08:27:18.439Z,97979.61
2024-02-29T08:29:52.690Z,97974.04
2024-02-29T08:32:26.642Z,97974.80
2024-02-29T08:35:01.322Z,97971.77
2024-02-29T08:37:35.151Z,97967.96
2024-02-29T08:40:10.658Z,97973.66
2024-02-29T08:42:44.636Z,97972.38
2024-02-29T08:45:22.052Z,97968.68
2024-02-29T08:47:57.138Z,97961.49
2024-02-29T08:50:30.743Z,97959.71
2024-02-29T08:53:04.606Z,97956.21
2024-02-29T08:55:39.582Z,97957.40
2024-02-29T08:58:13.673Z,97957.73
2024-02-29T09:00:47.573Z,97951.92
2024-02-29T09:03:21.398Z,97949.81
2024-02-29T09:05:55.125Z,97943.13
2024-02-29T09:08:28.794Z,97943.05
2024-02-29T09:11:02.625Z,97938.30
2024-02-29T09:13:36.840Z,97931.11
2024-02-29T09:16:11.270Z,97929.65
2024-02-29T09:18:45.202Z,97921.74
2024-02-29T09:21:19.040Z,97917.53
2024-02-29T09:23:52.745Z,97919.85
2024-02-29T09:26:27.255Z,97919.64
2024-02-29T09:29:01.245Z,97912.98
2024-02-29T09:31:35.032Z,97906.95
2024-02-29T09:34:09.129Z,97907.34
2024-02-29T09:36:43.856Z,97902.20
2024-02-29T09:39:17.578Z,97896.55
2024-02-29T09:42:08.640Z,97889.98
2024-02-29T09:44:45.511Z,97890.45
2024-02-29T09:47:20.982Z,97880.17
2024-02-29T09:49:59.581Z,97881.00
2024-02-29T09:52:40.347Z,97875.65
2024-02-29T09:55:18.695Z,97873.08
2024-02-29T09:57:52.961Z,97873.40
2024-02-29T10:00:27.406Z,97875.17
2024-02-29T10:03:01.828Z,97865.92
2024-02-29T10:05:36.162Z,97862.45
2024-02-29T10:08:11.129Z,97856.86
2024-02-29T10:10:45.155Z,97856.31
2024-02-29T10:13:18.836Z,97852.30
2024-02-29T10:15:54.473Z,97849.55
2024-02-29T10:18:28.413Z,97845.00
2024-02-29T10:21:02.248Z,97842.79
2024-02-29T10:23:36.174Z,97836.48
2024-02-29T10:26:10.705Z,97839.30
2024-02-29T10:28:44.641Z,97832.86
2024-02-29T10:31:22.389Z,97831.52
2024-02-29T10:33:56.112Z,97825.52
2024-02-29T10:36:30.226Z,97826.45
2024-02-29T10:39:03.828Z,97820.66
2024-02-29T10:41:38.113Z,97815.42
2024-02-29T10:44:12.490Z,97810.29
2024-02-29T10:46:46.646Z,97812.23
2024-02-29T10:49:30.376Z,97813.52
2024-02-29T10:52:10.786Z,97809.43
2024-02-29T10:54:52.584Z,97806.05
2024-02-29T10:57:28.427Z,97803.34
2024-02-29T11:00:06.775Z,97795.00
2024-02-29T11:02:42.085Z,97792.88
2024-02-29T11:05:16.246Z,97793.36
2024-02-29T11:07:50.088Z,97786.15
2024-02-29T11:10:24.559Z,97785.98
2024-02-29T11:13:07.553Z,97780.16
2024-02-29T11:15:46.071Z,97783.60
2024-02-29T11:18:26.584Z,97781.46
2024-02-29T11:21:10.465Z,97776.36
2024-02-29T11:23:44.604Z,97773.29
2024-02-29T11:26:18.869Z,97773.85
2024-02-29T11:28:53.420Z,97772.48
2024-02-29T11:31:27.372Z,97769.02
2024-02-29T11:34:01.780Z,97770.48
2024-02-29T11:36:37.713Z,97772.45
2024-02-29T11:39:12.695Z,97770.29
2024-02-29T11:41:48.200Z,97768.01
2024-02-29T11:44:21.824Z,97763.67
2024-02-29T11:46:55.782Z,97762.65
2024-02-29T11:49:29.806Z,97763.77
2024-02-29T11:52:03.828Z,97757.69
2024-02-29T11:54:38.322Z,97756.25
2024-02-29T11:57:12.855Z,97758.83
2024-02-29T11:59:46.952Z,97762.13
2024-02-29T12:02:21.733Z,97758.37
2024-02-29T12:04:56.177Z,97756.60
2024-02-29T12:07:30.641Z,97758.64
2024-02-29T12:10:05.753Z,97756.50
2024-02-29T12:12:40.287Z,97756.19
2024-02-29T12:15:14.745Z,97758.80
2024-02-29T12:17:51.599Z,97756.64
2024-02-29T12:20:27.482Z,97755.75
2024-02-29T12:23:03.590Z,97757.98
2024-02-29T12:25:38.077Z,97757.90
2024-02-29T12:28:12.850Z,97754.12
2024-02-29T12:30:48.096Z,97756.27
2024-02-29T12:33:25.154Z,97755.16
2024-02-29T12:36:00.810Z,97745.46
2024-02-29T12:38:35.941Z,97745.89
2024-02-29T12:41:10.808Z,97746.50
2024-02-29T12:43:51.397Z,97749.45
2024-02-29T12:46:25.379Z,97752.37
2024-02-29T12:49:00.294Z,97751.73
2024-02-29T12:51:34.512Z,97744.67
2024-02-29T12:54:09.380Z,97744.69
2024-02-29T12:56:43.612Z,97748.07
2024-02-29T12:59:17.626Z,97745.27
2024-02-29T13:01:51.523Z,97740.64
2024-02-29T13:04:26.256Z,97740.25
2024-02-29T13:07:00.821Z,97741.78
2024-02-29T13:09:34.657Z,97744.87
2024-02-29T13:12:09.327Z,97737.44
2024-02-29T13:14:44.657Z,97737.40
2024-02-29T13:17:18.514Z,97734.59
2024-02-29T13:19:52.952Z,97735.77
2024-02-29T13:22:26.965Z,97736.33
2024-02-29T13:25:00.967Z,97736.17
2024-02-29T13:27:36.278Z,97739.50
2024-02-29T13:30:12.098Z,97739.02
2024-02-29T13:32:46.494Z,97741.02
2024-02-29T13:35:20.284Z,97743.69
2024-02-29T13:37:57.086Z,97744.88
2024-02-29T13:40:31.140Z,97743.19
2024-02-29T13:43:04.883Z,97741.73
2024-02-29T13:45:40.697Z,97740.52
2024-02-29T13:48:14.931Z,97745.48
2024-02-29T13:50:48.703Z,97745.12
2024-02-29T13:53:22.563Z,97744.91
2024-02-29T13:55:56.463Z,97745.40
2024-02-29T13:58:30.107Z,97746.27
2024-02-29T14:01:06.695Z,97749.33
2024-02-29T14:03:42.530Z,97747.68
2024-02-29T14:06:16.969Z,97752.45
2024-02-29T14:08:50.899Z,97753.89
2024-02-29T14:11:24.568Z,97752.69
2024-02-29T14:13:58.343Z,97758.74
2024-02-29T14:16:32.611Z,97761.52
2024-02-29T14:19:06.674Z,97762.93
2024-02-29T14:21:40.437Z,97762.73
2024-02-29T14:24:14.316Z,97762.70
2024-02-29T14:26:48.610Z,97764.05
2024-02-29T14:29:22.720Z,97769.86
2024-02-29T14:31:56.828Z,97771.27
2024-02-29T14:34:30.778Z,97772.05
2024-02-29T14:37:04.555Z,97773.77
2024-02-29T14:39:38.330Z,97772.22
2024-02-29T14:42:12.262Z,97775.08
2024-02-29T14:44:46.076Z,97779.30
2024-02-29T14:47:20.172Z,97780.36
2024-02-29T14:49:53.815Z,97783.58
2024-02-29T14:52:28.727Z,97785.60
2024-02-29T14:55:02.663Z,97791.48
2024-02-29T14:57:36.210Z,97795.42
2024-02-29T15:00:16.244Z,97798.41
2024-02-29T15:02:50.321Z,97804.77
2024-02-29T15:05:24.381Z,97805.75
2024-02-29T15:07:59.192Z,97812.09
2024-02-29T15:10:34.139Z,97813.77
2024-02-29T15:13:08.152Z,97817.45
2024-02-29T15:15:42.182Z,97824.51
2024-02-29T15:18:15.708Z,97827.65
2024-02-29T15:20:49.371Z,97833.69
2024-02-29T15:23:23.099Z,97833.22
2024-02-29T15:25:56.991Z,97837.64
2024-02-29T15:28:33.634Z,97840.02
2024-02-29T15:31:08.611Z,97844.59
2024-02-29T15:33:42.574Z,97844.60
2024-02-29T15:36:17.110Z,97847.27
2024-02-29T15:38:51.091Z,97850.70
2024-02-29T15:41:26.066Z,97849.28
2024-02-29T15:44:00.450Z,97851.91
2024-02-29T15:46:34.360Z,97856.38
2024-02-29T15:49:08.452Z,97860.64
2024-02-29T15:51:42.782Z,97863.92
2024-02-29T15:54:16.716Z,97865.20
2024-02-29T15:56:51.774Z,97871.33
2024-02-29T15:59:25.656Z,97874.05
2024-02-29T16:01:59.499Z,97875.80
2024-02-29T16:04:33.324Z,97878.40
2024-02-29T16:07:07.935Z,97880.80
2024-02-29T16:09:42.222Z,97880.88
2024-02-29T16:12:17.604Z,97882.44
2024-02-29T16:14:53.830Z,97884.76
2024-02-29T16:17:28.899Z,97889.45
2024-02-29T16:20:02.689Z,97884.48
2024-02-29T16:22:42.046Z,97888.45
2024-02-29T16:25:16.220Z,97888.80
2024-02-29T16:27:51.739Z,97893.66
2024-02-29T16:30:25.616Z,97897.16
2024-02-29T16:32:59.292Z,97900.20
2024-02-29T16:35:33.087Z,97908.08
2024-02-29T16:38:08.043Z,97909.36
2024-02-29T16:40:44.254Z,97913.77
2024-02-29T16:43:22.606Z,97919.48
2024-02-29T16:45:56.993Z,97919.77
2024-02-29T16:48:31.353Z,97926.48
2024-02-29T16:51:05.957Z,97927.21
2024-02-29T16:53:40.246Z,97933.07
2024-02-29T16:56:15.678Z,97939.30
2024-02-29T16:58:49.648Z,97941.70
2024-02-29T17:01:24.123Z,97945.53
2024-02-29T17:04:00.550Z,97946.11
2024-02-29T17:06:35.481Z,97954.62
2024-02-29T17:09:09.374Z,97957.60
2024-02-29T17:11:43.045Z,97956.63
2024-02-29T17:14:17.386Z,97965.02
2024-02-29T17:16:52.014Z,97966.13
2024-02-29T17:19:26.046Z,97971.12
2024-02-29T17:22:00.510Z,97971.85
2024-02-29T17:24:34.404Z,97977.95
2024-02-29T17:27:08.569Z,97979.77
2024-02-29T17:29:43.935Z,97983.64
2024-02-29T17:32:17.825Z,97984.33
2024-02-29T17:34:51.513Z,97988.08
2024-02-29T17:37:27.930Z,97988.48
2024-02-29T17:40:03.569Z,97995.56
2024-02-29T17:42:37.545Z,98002.27
2024-02-29T17:45:13.142Z,98007.36
2024-02-29T17:47:47.396Z,98013.45
2024-02-29T17:50:21.991Z,98012.55
2024-02-29T17:52:56.464Z,98016.09
2024-02-29T17:55:30.367Z,98019.05
2024-02-29T17:58:04.345Z,98025.25
2024-02-29T18:00:38.898Z,98024.14
2024-02-29T18:03:13.094Z,98025.05
2024-02-29T18:05:47.561Z,98026.10
2024-02-29T18:08:21.158Z,98027.32
2024-02-29T18:10:54.877Z,98031.40
2024-02-29T18:13:31.324Z,98038.55
2024-02-29T18:16:05.825Z,98041.66
2024-02-29T18:18:39.594Z,98044.54
2024-02-29T18:21:13.010Z,98043.23
2024-02-29T18:23:46.519Z,98045.17
2024-02-29T18:26:22.665Z,98047.66
2024-02-29T18:28:56.944Z,98047.69
2024-02-29T18:31:30.835Z,98053.50
2024-02-29T18:34:04.983Z,98055.58
2024-02-29T18:36:42.970Z,98059.00
2024-02-29T18:39:16.721Z,98060.55
2024-02-29T18:41:50.897Z,98061.58
2024-02-29T18:44:25.162Z,98055.98
2024-02-29T18:47:01.273Z,98058.60
2024-02-29T18:49:35.057Z,98062.39
2024-02-29T18:52:10.379Z,98065.38
2024-02-29T18:54:47.251Z,98065.11
2024-02-29T18:57:20.966Z,98069.94
2024-02-29T18:59:54.631Z,98074.42
2024-02-29T19:02:28.696Z,98074.37
2024-02-29T19:05:02.433Z,98073.71
2024-02-29T19:07:36.340Z,98077.28
2024-02-29T19:10:14.710Z,98075.45
2024-02-29T19:12:49.130Z,98079.05
2024-02-29T19:15:24.718Z,98077.39
2024-02-29T19:18:02.390Z,98084.42
2024-02-29T19:20:36.708Z,98085.09
2024-02-29T19:23:10.955Z,98081.46
2024-02-29T19:25:44.512Z,98083.40
2024-02-29T19:28:18.348Z,98079.52
2024-02-29T19:30:54.653Z,98080.52
2024-02-29T19:33:28.226Z,98077.31
2024-02-29T19:36:02.133Z,98076.48
2024-02-29T19:38:36.661Z,98076.25
2024-02-29T19:41:11.880Z,98077.55
2024-02-29T19:43:45.543Z,98076.17
2024-02-29T19:46:19.210Z,98074.98
2024-02-29T19:48:54.819Z,98076.84
2024-02-29T19:51:28.358Z,98079.81
2024-02-29T19:54:01.837Z,98079.29
2024-02-29T19:56:35.407Z,98080.52
2024-02-29T19:59:08.886Z,98087.98
2024-02-29T20:01:43.000Z,98090.17
2024-02-29T20:04:18.174Z,98090.35
2024-02-29T20:06:54.489Z,98086.50
2024-02-29T20:09:28.017Z,98085.14
2024-02-29T20:12:03.251Z,98084.94
2024-02-29T20:14:36.800Z,98083.42
2024-02-29T20:17:10.336Z,98086.00
2024-02-29T20:19:44.006Z,98077.69
2024-02-29T20:22:17.938Z,98074.44
2024-02-29T20:24:52.098Z,98077.42
2024-02-29T20:27:27.251Z,98079.57
2024-02-29T20:30:01.353Z,98082.94
2024-02-29T20:32:35.068Z,98089.90
2024-02-29T20:35:09.650Z,98092.48
2024-02-29T20:37:43.267Z,98092.66
2024-02-29T20:40:18.282Z,98091.77
2024-02-29T20:42:52.582Z,98092.02
2024-02-29T20:45:26.421Z,98094.50
2024-02-29T20:47:59.828Z,98091.75
2024-02-29T20:50:34.859Z,98093.76
2024-02-29T20:53:08.459Z,98096.10
2024-02-29T20:55:42.071Z,98100.15
2024-02-29T20:58:16.139Z,98092.58
2024-02-29T21:00:50.001Z,98094.47
2024-02-29T21:03:28.734Z,98091.81
2024-02-29T21:06:04.604Z,98094.38
2024-02-29T21:08:39.704Z,98094.23
2024-02-29T21:11:13.342Z,98094.94
2024-02-29T21:13:47.187Z,98093.58
2024-02-29T21:16:20.808Z,98095.98
2024-02-29T21:18:54.728Z,98092.02
2024-02-29T21:21:30.662Z,98085.98
2024-02-29T21:24:04.838Z,98084.15
2024-02-29T21:26:40.514Z,98086.35
2024-02-29T21:29:14.384Z,98086.16
2024-02-29T21:31:49.247Z,98082.94
2024-02-29T21:34:23.712Z,98080.89
2024-02-29T21:36:58.393Z,98080.83
2024-02-29T21:39:36.813Z,98083.78
2024-02-29T21:42:17.498Z,98080.91
2024-02-29T21:44:52.231Z,98085.27
2024-02-29T21:47:25.983Z,98081.84
2024-02-29T21:49:59.644Z,98081.16
2024-02-29T21:52:33.875Z,98080.77
2024-02-29T21:55:08.960Z,98081.30
2024-02-29T21:57:43.101Z,98083.49
2024-02-29T22:00:18.329Z,98078.67
2024-02-29T22:02:51.955Z,98076.73
2024-02-29T22:05:26.213Z,98076.04
2024-02-29T22:08:00.356Z,98074.23
2024-02-29T22:10:37.117Z,98076.48
2024-02-29T22:13:11.794Z,98074.22
2024-02-29T22:15:45.832Z,98071.57
2024-02-29T22:18:20.708Z,98069.21
2024-02-29T22:20:57.637Z,98067.61
2024-02-29T22:23:31.918Z,98061.20
2024-02-29T22:26:06.090Z,98061.80
2024-02-29T22:28:41.164Z,98057.73
2024-02-29T22:31:21.866Z,98058.23
2024-02-29T22:33:55.757Z,98057.02
2024-02-29T22:36:31.993Z,98054.88
2024-02-29T22:39:07.008Z,98054.98
2024-02-29T22:41:52.785Z,98051.68
2024-02-29T22:44:31.952Z,98054.48
2024-02-29T22:47:06.310Z,98054.75
2024-02-29T22:49:40.684Z,98056.60
2024-02-29T22:52:14.307Z,98053.84
2024-02-29T22:54:48.416Z,98054.91
2024-02-29T22:57:21.896Z,98051.33
2024-02-29T22:59:56.228Z,98047.70
2024-02-29T23:02:30.530Z,98048.09
2024-02-29T23:05:06.720Z,98045.02
2024-02-29T23:07:41.609Z,98043.67
2024-02-29T23:10:16.910Z,98039.69
2024-02-29T23:12:51.434Z,98036.50
2024-02-29T23:15:25.929Z,98038.61
2024-02-29T23:17:59.856Z,98035.00
2024-02-29T23:20:35.112Z,98029.07
2024-02-29T23:23:08.919Z,98025.33
2024-02-29T23:25:42.713Z,98027.23
2024-02-29T23:28:16.508Z,98026.14
2024-02-29T23:30:50.418Z,98022.63
2024-02-29T23:33:24.162Z,98016.77
2024-02-29T23:35:57.987Z,98022.34
2024-02-29T23:38:31.509Z,98015.58
2024-02-29T23:41:05.392Z,98015.38
2024-02-29T23:43:40.113Z,98012.05
2024-02-29T23:46:14.011Z,98009.73
2024-02-29T23:48:47.600Z,98007.96
2024-02-29T23:51:22.263Z,98006.90
2024-02-29T23:53:56.015Z,98003.11
2024-02-29T23:56:30.346Z,98001.84
2024-02-29T23:59:05.672Z,97997.06
